sensor_id;sensor_type;location;lat;lon;timestamp;temperature;humidity
4763;DHT22;2395;50.738;7.122;2022-10-16T00:00:51;14.90;99.90
4763;DHT22;2395;50.738;7.122;2022-10-16T00:04:18;14.90;99.90
4763;DHT22;2395;50.738;7.122;2022-10-16T00:07:44;14.80;99.90
4763;DHT22;2395;50.738;7.122;2022-10-16T00:11:12;14.80;99.90
4763;DHT22;2395;50.738;7.122;2022-10-16T00:14:37;14.80;99.90
4763;DHT22;2395;50.738;7.122;2022-10-16T00:18:05;14.80;99.90
4763;DHT22;2395;50.738;7.122;2022-10-16T00:21:32;14.70;99.90
4763;DHT22;2395;50.738;7.122;2022-10-16T00:24:57;14.80;99.90
4763;DHT22;2395;50.738;7.122;2022-10-16T00:28:23;14.70;99.90
4763;DHT22;2395;50.738;7.122;2022-10-16T00:31:49;14.60;99.90
4763;DHT22;2395;50.738;7.122;2022-10-16T00:35:14;14.50;99.90
4763;DHT22;2395;50.738;7.122;2022-10-16T00:38:43;14.50;99.90
4763;DHT22;2395;50.738;7.122;2022-10-16T00:42:11;14.50;99.90
4763;DHT22;2395;50.738;7.122;2022-10-16T00:45:41;14.50;99.90
4763;DHT22;2395;50.738;7.122;2022-10-16T00:49:10;14.50;99.90
4763;DHT22;2395;50.738;7.122;2022-10-16T00:52:43;14.40;99.90
4763;DHT22;2395;50.738;7.122;2022-10-16T00:56:11;14.30;99.90
4763;DHT22;2395;50.738;7.122;2022-10-16T00:59:39;14.30;99.90
4763;DHT22;2395;50.738;7.122;2022-10-16T01:03:23;14.30;99.90
4763;DHT22;2395;50.738;7.122;2022-10-16T01:06:57;14.30;99.90
4763;DHT22;2395;50.738;7.122;2022-10-16T01:10:35;14.30;99.90
4763;DHT22;2395;50.738;7.122;2022-10-16T01:14:13;14.30;99.90
4763;DHT22;2395;50.738;7.122;2022-10-16T01:17:48;14.30;99.90
4763;DHT22;2395;50.738;7.122;2022-10-16T01:21:22;14.30;99.90
4763;DHT22;2395;50.738;7.122;2022-10-16T01:24:53;14.20;99.90
4763;DHT22;2395;50.738;7.122;2022-10-16T01:28:41;14.10;99.90
4763;DHT22;2395;50.738;7.122;2022-10-16T01:32:16;14.00;99.90
4763;DHT22;2395;50.738;7.122;2022-10-16T01:35:47;14.10;99.90
4763;DHT22;2395;50.738;7.122;2022-10-16T01:39:22;14.10;99.90
4763;DHT22;2395;50.738;7.122;2022-10-16T01:42:55;14.10;99.90
4763;DHT22;2395;50.738;7.122;2022-10-16T01:46:28;14.10;99.90
4763;DHT22;2395;50.738;7.122;2022-10-16T01:49:58;14.00;99.90
4763;DHT22;2395;50.738;7.122;2022-10-16T01:53:26;14.00;99.90
4763;DHT22;2395;50.738;7.122;2022-10-16T01:56:55;13.90;99.90
4763;DHT22;2395;50.738;7.122;2022-10-16T02:00:23;13.90;99.90
4763;DHT22;2395;50.738;7.122;2022-10-16T02:03:54;13.90;99.90
4763;DHT22;2395;50.738;7.122;2022-10-16T02:07:23;14.00;99.90
4763;DHT22;2395;50.738;7.122;2022-10-16T02:10:51;14.00;99.90
4763;DHT22;2395;50.738;7.122;2022-10-16T02:14:19;14.10;99.90
4763;DHT22;2395;50.738;7.122;2022-10-16T02:17:46;14.00;99.90
4763;DHT22;2395;50.738;7.122;2022-10-16T02:21:15;14.10;99.90
4763;DHT22;2395;50.738;7.122;2022-10-16T02:24:51;14.10;99.90
4763;DHT22;2395;50.738;7.122;2022-10-16T02:28:22;14.10;99.90
4763;DHT22;2395;50.738;7.122;2022-10-16T02:31:55;14.00;99.90
4763;DHT22;2395;50.738;7.122;2022-10-16T02:35:26;14.00;99.90
4763;DHT22;2395;50.738;7.122;2022-10-16T02:38:54;13.90;99.90
4763;DHT22;2395;50.738;7.122;2022-10-16T02:42:20;14.00;99.90
4763;DHT22;2395;50.738;7.122;2022-10-16T02:45:45;14.10;99.90
4763;DHT22;2395;50.738;7.122;2022-10-16T02:49:12;14.00;99.90
4763;DHT22;2395;50.738;7.122;2022-10-16T02:52:38;14.00;99.90
4763;DHT22;2395;50.738;7.122;2022-10-16T02:56:03;14.10;99.90
4763;DHT22;2395;50.738;7.122;2022-10-16T02:59:29;14.10;99.90
4763;DHT22;2395;50.738;7.122;2022-10-16T03:02:54;14.10;99.90
4763;DHT22;2395;50.738;7.122;2022-10-16T03:06:21;14.10;99.90
4763;DHT22;2395;50.738;7.122;2022-10-16T03:09:47;14.00;99.90
4763;DHT22;2395;50.738;7.122;2022-10-16T03:13:12;14.00;99.90
4763;DHT22;2395;50.738;7.122;2022-10-16T03:16:37;14.00;99.90
4763;DHT22;2395;50.738;7.122;2022-10-16T03:20:03;14.10;99.90
4763;DHT22;2395;50.738;7.122;2022-10-16T03:23:30;14.20;99.90
4763;DHT22;2395;50.738;7.122;2022-10-16T03:26:56;14.20;99.90
4763;DHT22;2395;50.738;7.122;2022-10-16T03:30:21;14.20;99.90
4763;DHT22;2395;50.738;7.122;2022-10-16T03:33:47;14.20;99.90
4763;DHT22;2395;50.738;7.122;2022-10-16T03:37:12;14.20;99.90
4763;DHT22;2395;50.738;7.122;2022-10-16T03:40:39;14.20;99.90
4763;DHT22;2395;50.738;7.122;2022-10-16T03:44:05;14.20;99.90
4763;DHT22;2395;50.738;7.122;2022-10-16T03:47:31;14.20;99.90
4763;DHT22;2395;50.738;7.122;2022-10-16T03:50:57;14.30;99.90
4763;DHT22;2395;50.738;7.122;2022-10-16T03:54:22;14.30;99.90
4763;DHT22;2395;50.738;7.122;2022-10-16T03:57:49;14.20;99.90
4763;DHT22;2395;50.738;7.122;2022-10-16T04:01:15;14.30;99.90
4763;DHT22;2395;50.738;7.122;2022-10-16T04:04:40;14.30;99.90
4763;DHT22;2395;50.738;7.122;2022-10-16T04:08:06;14.30;99.90
4763;DHT22;2395;50.738;7.122;2022-10-16T04:11:31;14.30;99.90
4763;DHT22;2395;50.738;7.122;2022-10-16T04:14:58;14.30;99.90
4763;DHT22;2395;50.738;7.122;2022-10-16T04:18:23;14.30;99.90
4763;DHT22;2395;50.738;7.122;2022-10-16T04:21:49;14.40;99.90
4763;DHT22;2395;50.738;7.122;2022-10-16T04:25:14;14.50;99.90
4763;DHT22;2395;50.738;7.122;2022-10-16T04:28:40;14.50;99.90
4763;DHT22;2395;50.738;7.122;2022-10-16T04:32:07;14.40;99.90
4763;DHT22;2395;50.738;7.122;2022-10-16T04:35:34;14.40;99.90
4763;DHT22;2395;50.738;7.122;2022-10-16T04:39:00;14.50;99.90
4763;DHT22;2395;50.738;7.122;2022-10-16T04:42:25;14.50;99.90
4763;DHT22;2395;50.738;7.122;2022-10-16T04:45:51;14.50;99.90
4763;DHT22;2395;50.738;7.122;2022-10-16T04:49:18;14.60;99.90
4763;DHT22;2395;50.738;7.122;2022-10-16T04:52:43;14.60;99.90
4763;DHT22;2395;50.738;7.122;2022-10-16T04:56:09;14.60;99.90
4763;DHT22;2395;50.738;7.122;2022-10-16T04:59:34;14.60;99.90
4763;DHT22;2395;50.738;7.122;2022-10-16T05:03:00;14.60;99.90
4763;DHT22;2395;50.738;7.122;2022-10-16T05:06:27;14.60;99.90
4763;DHT22;2395;50.738;7.122;2022-10-16T05:09:52;14.70;99.90
4763;DHT22;2395;50.738;7.122;2022-10-16T05:13:18;14.60;99.90
4763;DHT22;2395;50.738;7.122;2022-10-16T05:16:44;14.70;99.90
4763;DHT22;2395;50.738;7.122;2022-10-16T05:20:10;14.60;99.90
4763;DHT22;2395;50.738;7.122;2022-10-16T05:23:36;14.60;99.90
4763;DHT22;2395;50.738;7.122;2022-10-16T05:27:02;14.50;99.90
4763;DHT22;2395;50.738;7.122;2022-10-16T05:30:27;14.50;99.90
4763;DHT22;2395;50.738;7.122;2022-10-16T05:33:58;14.40;99.90
4763;DHT22;2395;50.738;7.122;2022-10-16T05:37:25;14.50;99.90
4763;DHT22;2395;50.738;7.122;2022-10-16T05:40:52;14.50;99.90
4763;DHT22;2395;50.738;7.122;2022-10-16T05:44:17;14.50;99.90
4763;DHT22;2395;50.738;7.122;2022-10-16T05:47:43;14.40;99.90
4763;DHT22;2395;50.738;7.122;2022-10-16T05:51:10;14.40;99.90
4763;DHT22;2395;50.738;7.122;2022-10-16T05:54:36;14.40;99.90
4763;DHT22;2395;50.738;7.122;2022-10-16T05:58:03;14.40;99.90
4763;DHT22;2395;50.738;7.122;2022-10-16T06:01:29;14.40;99.90
4763;DHT22;2395;50.738;7.122;2022-10-16T06:04:55;14.40;99.90
4763;DHT22;2395;50.738;7.122;2022-10-16T06:08:21;14.40;99.90
4763;DHT22;2395;50.738;7.122;2022-10-16T06:11:47;14.40;99.90
4763;DHT22;2395;50.738;7.122;2022-10-16T06:15:14;14.40;99.90
4763;DHT22;2395;50.738;7.122;2022-10-16T06:18:39;14.40;99.90
4763;DHT22;2395;50.738;7.122;2022-10-16T06:22:05;14.50;99.90
4763;DHT22;2395;50.738;7.122;2022-10-16T06:25:31;14.50;99.90
4763;DHT22;2395;50.738;7.122;2022-10-16T06:28:58;14.50;99.90
4763;DHT22;2395;50.738;7.122;2022-10-16T06:32:27;14.50;99.90
4763;DHT22;2395;50.738;7.122;2022-10-16T06:35:53;14.50;99.90
4763;DHT22;2395;50.738;7.122;2022-10-16T06:39:18;14.60;99.90
4763;DHT22;2395;50.738;7.122;2022-10-16T06:42:43;14.60;99.90
4763;DHT22;2395;50.738;7.122;2022-10-16T06:46:11;14.70;99.90
4763;DHT22;2395;50.738;7.122;2022-10-16T06:49:38;14.70;99.90
4763;DHT22;2395;50.738;7.122;2022-10-16T06:53:04;14.80;99.90
4763;DHT22;2395;50.738;7.122;2022-10-16T06:56:30;14.80;99.90
4763;DHT22;2395;50.738;7.122;2022-10-16T06:59:55;14.90;99.90
4763;DHT22;2395;50.738;7.122;2022-10-16T07:03:22;15.00;99.90
4763;DHT22;2395;50.738;7.122;2022-10-16T07:06:49;15.20;99.90
4763;DHT22;2395;50.738;7.122;2022-10-16T07:10:14;15.40;99.90
4763;DHT22;2395;50.738;7.122;2022-10-16T07:13:41;15.20;99.90
4763;DHT22;2395;50.738;7.122;2022-10-16T07:17:07;15.20;99.90
4763;DHT22;2395;50.738;7.122;2022-10-16T07:20:33;15.20;99.90
4763;DHT22;2395;50.738;7.122;2022-10-16T07:24:03;15.20;99.90
4763;DHT22;2395;50.738;7.122;2022-10-16T07:27:29;15.40;99.90
4763;DHT22;2395;50.738;7.122;2022-10-16T07:31:00;15.50;99.90
4763;DHT22;2395;50.738;7.122;2022-10-16T07:34:25;15.50;99.90
4763;DHT22;2395;50.738;7.122;2022-10-16T07:37:51;15.50;99.90
4763;DHT22;2395;50.738;7.122;2022-10-16T07:41:20;15.60;99.90
4763;DHT22;2395;50.738;7.122;2022-10-16T07:44:45;15.60;99.90
4763;DHT22;2395;50.738;7.122;2022-10-16T07:48:15;15.60;99.90
4763;DHT22;2395;50.738;7.122;2022-10-16T07:51:40;15.70;99.90
4763;DHT22;2395;50.738;7.122;2022-10-16T07:55:07;15.70;99.90
4763;DHT22;2395;50.738;7.122;2022-10-16T07:58:35;15.70;99.90
4763;DHT22;2395;50.738;7.122;2022-10-16T08:02:04;15.70;99.90
4763;DHT22;2395;50.738;7.122;2022-10-16T08:05:31;15.80;99.90
4763;DHT22;2395;50.738;7.122;2022-10-16T08:09:01;15.80;99.90
4763;DHT22;2395;50.738;7.122;2022-10-16T08:12:27;15.70;99.90
4763;DHT22;2395;50.738;7.122;2022-10-16T08:15:54;15.60;99.90
4763;DHT22;2395;50.738;7.122;2022-10-16T08:19:20;15.60;99.90
4763;DHT22;2395;50.738;7.122;2022-10-16T08:22:45;15.60;99.90
4763;DHT22;2395;50.738;7.122;2022-10-16T08:26:11;15.60;99.90
4763;DHT22;2395;50.738;7.122;2022-10-16T08:29:36;15.60;99.90
4763;DHT22;2395;50.738;7.122;2022-10-16T08:33:04;15.70;99.90
4763;DHT22;2395;50.738;7.122;2022-10-16T08:36:29;15.80;99.90
4763;DHT22;2395;50.738;7.122;2022-10-16T08:39:56;15.80;99.90
4763;DHT22;2395;50.738;7.122;2022-10-16T08:43:40;15.90;99.90
4763;DHT22;2395;50.738;7.122;2022-10-16T08:47:43;16.00;99.90
4763;DHT22;2395;50.738;7.122;2022-10-16T08:51:19;16.10;99.90
4763;DHT22;2395;50.738;7.122;2022-10-16T08:54:48;16.20;99.90
4763;DHT22;2395;50.738;7.122;2022-10-16T08:58:18;16.20;99.90
4763;DHT22;2395;50.738;7.122;2022-10-16T09:01:51;16.30;99.90
4763;DHT22;2395;50.738;7.122;2022-10-16T09:05:29;16.50;99.90
4763;DHT22;2395;50.738;7.122;2022-10-16T09:09:30;16.70;99.90
4763;DHT22;2395;50.738;7.122;2022-10-16T09:13:14;16.80;99.90
4763;DHT22;2395;50.738;7.122;2022-10-16T09:16:55;17.30;99.90
4763;DHT22;2395;50.738;7.122;2022-10-16T09:20:32;17.40;99.90
4763;DHT22;2395;50.738;7.122;2022-10-16T09:24:10;17.40;99.90
4763;DHT22;2395;50.738;7.122;2022-10-16T09:27:38;17.40;99.90
4763;DHT22;2395;50.738;7.122;2022-10-16T09:31:03;17.60;99.90
4763;DHT22;2395;50.738;7.122;2022-10-16T09:34:40;17.70;99.90
4763;DHT22;2395;50.738;7.122;2022-10-16T09:38:21;17.80;99.90
4763;DHT22;2395;50.738;7.122;2022-10-16T09:41:46;17.90;99.90
4763;DHT22;2395;50.738;7.122;2022-10-16T09:45:21;17.90;99.90
4763;DHT22;2395;50.738;7.122;2022-10-16T09:48:50;17.80;99.90
4763;DHT22;2395;50.738;7.122;2022-10-16T09:52:22;17.90;99.90
4763;DHT22;2395;50.738;7.122;2022-10-16T09:55:48;18.00;99.90
4763;DHT22;2395;50.738;7.122;2022-10-16T09:59:19;18.10;99.90
4763;DHT22;2395;50.738;7.122;2022-10-16T10:02:46;18.20;99.90
4763;DHT22;2395;50.738;7.122;2022-10-16T10:06:18;18.40;99.90
4763;DHT22;2395;50.738;7.122;2022-10-16T10:09:51;18.40;99.90
4763;DHT22;2395;50.738;7.122;2022-10-16T10:13:19;18.50;99.90
4763;DHT22;2395;50.738;7.122;2022-10-16T10:17:12;18.40;99.90
4763;DHT22;2395;50.738;7.122;2022-10-16T10:20:43;18.40;99.90
4763;DHT22;2395;50.738;7.122;2022-10-16T10:24:12;18.60;99.90
4763;DHT22;2395;50.738;7.122;2022-10-16T10:27:59;18.60;99.90
4763;DHT22;2395;50.738;7.122;2022-10-16T10:31:38;18.80;99.90
4763;DHT22;2395;50.738;7.122;2022-10-16T10:35:22;19.00;99.90
4763;DHT22;2395;50.738;7.122;2022-10-16T10:38:58;19.20;99.90
4763;DHT22;2395;50.738;7.122;2022-10-16T10:42:30;19.50;99.90
4763;DHT22;2395;50.738;7.122;2022-10-16T10:46:16;19.60;99.90
4763;DHT22;2395;50.738;7.122;2022-10-16T10:49:56;19.70;99.90
4763;DHT22;2395;50.738;7.122;2022-10-16T10:53:39;19.90;99.90
4763;DHT22;2395;50.738;7.122;2022-10-16T10:57:22;19.80;99.90
4763;DHT22;2395;50.738;7.122;2022-10-16T11:01:09;19.70;99.90
4763;DHT22;2395;50.738;7.122;2022-10-16T11:08:46;20.20;99.90
4763;DHT22;2395;50.738;7.122;2022-10-16T11:12:20;20.40;99.90
4763;DHT22;2395;50.738;7.122;2022-10-16T11:15:55;20.60;99.90
4763;DHT22;2395;50.738;7.122;2022-10-16T11:19:33;21.10;99.90
4763;DHT22;2395;50.738;7.122;2022-10-16T11:23:11;21.10;99.90
4763;DHT22;2395;50.738;7.122;2022-10-16T11:26:43;21.20;99.90
4763;DHT22;2395;50.738;7.122;2022-10-16T11:30:20;21.40;99.90
4763;DHT22;2395;50.738;7.122;2022-10-16T11:33:55;21.20;99.90
4763;DHT22;2395;50.738;7.122;2022-10-16T11:37:30;21.20;99.90
4763;DHT22;2395;50.738;7.122;2022-10-16T11:41:04;21.40;99.90
4763;DHT22;2395;50.738;7.122;2022-10-16T11:44:45;21.30;99.90
4763;DHT22;2395;50.738;7.122;2022-10-16T11:48:23;21.10;99.90
4763;DHT22;2395;50.738;7.122;2022-10-16T11:51:59;21.10;99.90
4763;DHT22;2395;50.738;7.122;2022-10-16T11:55:33;21.00;99.90
4763;DHT22;2395;50.738;7.122;2022-10-16T11:59:07;21.00;99.90
4763;DHT22;2395;50.738;7.122;2022-10-16T12:02:47;20.90;99.90
4763;DHT22;2395;50.738;7.122;2022-10-16T12:06:28;21.00;99.90
4763;DHT22;2395;50.738;7.122;2022-10-16T12:10:10;20.70;99.90
4763;DHT22;2395;50.738;7.122;2022-10-16T12:13:46;20.80;99.90
4763;DHT22;2395;50.738;7.122;2022-10-16T12:17:25;20.80;99.90
4763;DHT22;2395;50.738;7.122;2022-10-16T12:20:55;20.90;99.90
4763;DHT22;2395;50.738;7.122;2022-10-16T12:24:33;21.00;99.90
4763;DHT22;2395;50.738;7.122;2022-10-16T12:28:04;21.30;99.90
4763;DHT22;2395;50.738;7.122;2022-10-16T12:31:43;21.50;99.90
4763;DHT22;2395;50.738;7.122;2022-10-16T12:35:21;21.40;99.90
4763;DHT22;2395;50.738;7.122;2022-10-16T12:38:54;21.50;99.90
4763;DHT22;2395;50.738;7.122;2022-10-16T12:42:30;21.20;99.90
4763;DHT22;2395;50.738;7.122;2022-10-16T12:46:20;20.70;99.90
4763;DHT22;2395;50.738;7.122;2022-10-16T12:49:51;20.70;99.90
4763;DHT22;2395;50.738;7.122;2022-10-16T12:53:19;20.70;99.90
4763;DHT22;2395;50.738;7.122;2022-10-16T12:56:58;21.30;99.90
4763;DHT22;2395;50.738;7.122;2022-10-16T13:00:41;21.90;99.90
4763;DHT22;2395;50.738;7.122;2022-10-16T13:04:43;22.20;99.90
4763;DHT22;2395;50.738;7.122;2022-10-16T13:08:39;22.20;99.90
4763;DHT22;2395;50.738;7.122;2022-10-16T13:16:34;22.00;99.90
4763;DHT22;2395;50.738;7.122;2022-10-16T13:20:14;22.00;99.90
4763;DHT22;2395;50.738;7.122;2022-10-16T13:24:02;21.90;99.90
4763;DHT22;2395;50.738;7.122;2022-10-16T13:27:49;21.70;99.90
4763;DHT22;2395;50.738;7.122;2022-10-16T13:31:19;21.40;99.90
4763;DHT22;2395;50.738;7.122;2022-10-16T13:34:47;21.20;99.90
4763;DHT22;2395;50.738;7.122;2022-10-16T13:38:18;21.00;99.90
4763;DHT22;2395;50.738;7.122;2022-10-16T13:42:00;20.90;99.90
4763;DHT22;2395;50.738;7.122;2022-10-16T13:45:26;20.90;99.90
4763;DHT22;2395;50.738;7.122;2022-10-16T13:48:59;20.90;99.90
4763;DHT22;2395;50.738;7.122;2022-10-16T13:52:26;20.80;99.90
4763;DHT22;2395;50.738;7.122;2022-10-16T13:55:53;20.90;99.90
4763;DHT22;2395;50.738;7.122;2022-10-16T13:59:24;21.00;99.90
4763;DHT22;2395;50.738;7.122;2022-10-16T14:02:55;21.40;99.90
4763;DHT22;2395;50.738;7.122;2022-10-16T14:06:27;22.40;99.90
4763;DHT22;2395;50.738;7.122;2022-10-16T14:10:01;22.50;99.90
4763;DHT22;2395;50.738;7.122;2022-10-16T14:13:31;22.40;99.90
4763;DHT22;2395;50.738;7.122;2022-10-16T14:17:00;22.00;99.90
4763;DHT22;2395;50.738;7.122;2022-10-16T14:20:28;21.90;99.90
4763;DHT22;2395;50.738;7.122;2022-10-16T14:23:55;21.40;99.90
4763;DHT22;2395;50.738;7.122;2022-10-16T14:27:28;21.30;99.90
4763;DHT22;2395;50.738;7.122;2022-10-16T14:30:55;21.30;99.90
4763;DHT22;2395;50.738;7.122;2022-10-16T14:34:27;21.40;99.90
4763;DHT22;2395;50.738;7.122;2022-10-16T14:38:00;21.50;99.90
4763;DHT22;2395;50.738;7.122;2022-10-16T14:41:31;21.30;99.90
4763;DHT22;2395;50.738;7.122;2022-10-16T14:44:57;21.50;99.90
4763;DHT22;2395;50.738;7.122;2022-10-16T14:48:24;21.60;99.90
4763;DHT22;2395;50.738;7.122;2022-10-16T14:51:50;21.50;99.90
4763;DHT22;2395;50.738;7.122;2022-10-16T14:55:16;21.40;99.90
4763;DHT22;2395;50.738;7.122;2022-10-16T14:58:45;21.10;99.90
4763;DHT22;2395;50.738;7.122;2022-10-16T15:02:27;20.90;99.90
4763;DHT22;2395;50.738;7.122;2022-10-16T15:05:53;20.80;99.90
4763;DHT22;2395;50.738;7.122;2022-10-16T15:09:18;20.60;99.90
4763;DHT22;2395;50.738;7.122;2022-10-16T15:12:44;20.50;99.90
4763;DHT22;2395;50.738;7.122;2022-10-16T15:16:14;20.30;99.90
4763;DHT22;2395;50.738;7.122;2022-10-16T15:19:39;20.20;99.90
4763;DHT22;2395;50.738;7.122;2022-10-16T15:23:10;20.10;99.90
4763;DHT22;2395;50.738;7.122;2022-10-16T15:26:39;20.00;99.90
4763;DHT22;2395;50.738;7.122;2022-10-16T15:30:07;19.90;99.90
4763;DHT22;2395;50.738;7.122;2022-10-16T15:33:34;19.70;99.90
4763;DHT22;2395;50.738;7.122;2022-10-16T15:37:02;19.60;99.90
4763;DHT22;2395;50.738;7.122;2022-10-16T15:40:28;19.50;99.90
4763;DHT22;2395;50.738;7.122;2022-10-16T15:43:53;19.40;99.90
4763;DHT22;2395;50.738;7.122;2022-10-16T15:47:20;19.30;99.90
4763;DHT22;2395;50.738;7.122;2022-10-16T15:50:46;19.30;99.90
4763;DHT22;2395;50.738;7.122;2022-10-16T15:54:11;19.20;99.90
4763;DHT22;2395;50.738;7.122;2022-10-16T15:57:37;19.20;99.90
4763;DHT22;2395;50.738;7.122;2022-10-16T16:01:04;19.10;99.90
4763;DHT22;2395;50.738;7.122;2022-10-16T16:04:31;19.10;99.90
4763;DHT22;2395;50.738;7.122;2022-10-16T16:07:59;19.00;99.90
4763;DHT22;2395;50.738;7.122;2022-10-16T16:11:25;19.00;99.90
4763;DHT22;2395;50.738;7.122;2022-10-16T16:14:50;19.00;99.90
4763;DHT22;2395;50.738;7.122;2022-10-16T16:18:16;18.90;99.90
4763;DHT22;2395;50.738;7.122;2022-10-16T16:21:47;18.90;99.90
4763;DHT22;2395;50.738;7.122;2022-10-16T16:25:13;18.90;99.90
4763;DHT22;2395;50.738;7.122;2022-10-16T16:28:40;18.80;99.90
4763;DHT22;2395;50.738;7.122;2022-10-16T16:32:05;18.80;99.90
4763;DHT22;2395;50.738;7.122;2022-10-16T16:35:31;18.70;99.90
4763;DHT22;2395;50.738;7.122;2022-10-16T16:38:59;18.70;99.90
4763;DHT22;2395;50.738;7.122;2022-10-16T16:42:25;18.70;99.90
4763;DHT22;2395;50.738;7.122;2022-10-16T16:45:50;18.70;99.90
4763;DHT22;2395;50.738;7.122;2022-10-16T16:49:16;18.60;99.90
4763;DHT22;2395;50.738;7.122;2022-10-16T16:52:42;18.50;99.90
4763;DHT22;2395;50.738;7.122;2022-10-16T16:56:09;18.50;99.90
4763;DHT22;2395;50.738;7.122;2022-10-16T16:59:36;18.50;99.90
4763;DHT22;2395;50.738;7.122;2022-10-16T17:03:02;18.40;99.90
4763;DHT22;2395;50.738;7.122;2022-10-16T17:06:29;18.40;99.90
4763;DHT22;2395;50.738;7.122;2022-10-16T17:09:58;18.40;99.90
4763;DHT22;2395;50.738;7.122;2022-10-16T17:13:26;18.30;99.90
4763;DHT22;2395;50.738;7.122;2022-10-16T17:16:52;18.30;99.90
4763;DHT22;2395;50.738;7.122;2022-10-16T17:20:17;18.20;99.90
4763;DHT22;2395;50.738;7.122;2022-10-16T17:23:43;18.20;99.90
4763;DHT22;2395;50.738;7.122;2022-10-16T17:27:08;18.10;99.90
4763;DHT22;2395;50.738;7.122;2022-10-16T17:30:38;18.10;99.90
4763;DHT22;2395;50.738;7.122;2022-10-16T17:34:05;18.10;99.90
4763;DHT22;2395;50.738;7.122;2022-10-16T17:37:33;18.10;99.90
4763;DHT22;2395;50.738;7.122;2022-10-16T17:41:06;18.10;99.90
4763;DHT22;2395;50.738;7.122;2022-10-16T17:44:34;18.00;99.90
4763;DHT22;2395;50.738;7.122;2022-10-16T17:48:03;18.00;99.90
4763;DHT22;2395;50.738;7.122;2022-10-16T17:51:30;17.90;99.90
4763;DHT22;2395;50.738;7.122;2022-10-16T17:54:55;17.80;99.90
4763;DHT22;2395;50.738;7.122;2022-10-16T17:58:23;17.70;99.90
4763;DHT22;2395;50.738;7.122;2022-10-16T18:01:50;17.70;99.90
4763;DHT22;2395;50.738;7.122;2022-10-16T18:05:16;17.70;99.90
4763;DHT22;2395;50.738;7.122;2022-10-16T18:08:41;17.70;99.90
4763;DHT22;2395;50.738;7.122;2022-10-16T18:12:07;17.70;99.90
4763;DHT22;2395;50.738;7.122;2022-10-16T18:15:32;17.80;99.90
4763;DHT22;2395;50.738;7.122;2022-10-16T18:18:59;17.80;99.90
4763;DHT22;2395;50.738;7.122;2022-10-16T18:22:25;17.80;99.90
4763;DHT22;2395;50.738;7.122;2022-10-16T18:25:50;17.80;99.90
4763;DHT22;2395;50.738;7.122;2022-10-16T18:29:17;17.80;99.90
4763;DHT22;2395;50.738;7.122;2022-10-16T18:32:43;17.80;99.90
4763;DHT22;2395;50.738;7.122;2022-10-16T18:36:14;17.70;99.90
4763;DHT22;2395;50.738;7.122;2022-10-16T18:39:41;17.60;99.90
4763;DHT22;2395;50.738;7.122;2022-10-16T18:43:10;17.50;99.90
4763;DHT22;2395;50.738;7.122;2022-10-16T18:46:36;17.50;99.90
4763;DHT22;2395;50.738;7.122;2022-10-16T18:50:02;17.50;99.90
4763;DHT22;2395;50.738;7.122;2022-10-16T18:53:37;17.50;99.90
4763;DHT22;2395;50.738;7.122;2022-10-16T18:57:03;17.50;99.90
4763;DHT22;2395;50.738;7.122;2022-10-16T19:00:28;17.50;99.90
4763;DHT22;2395;50.738;7.122;2022-10-16T19:03:56;17.40;99.90
4763;DHT22;2395;50.738;7.122;2022-10-16T19:07:22;17.40;99.90
4763;DHT22;2395;50.738;7.122;2022-10-16T19:10:49;17.30;99.90
4763;DHT22;2395;50.738;7.122;2022-10-16T19:14:15;17.30;99.90
4763;DHT22;2395;50.738;7.122;2022-10-16T19:17:41;17.20;99.90
4763;DHT22;2395;50.738;7.122;2022-10-16T19:21:08;17.20;99.90
4763;DHT22;2395;50.738;7.122;2022-10-16T19:24:39;17.10;99.90
4763;DHT22;2395;50.738;7.122;2022-10-16T19:28:06;17.10;99.90
4763;DHT22;2395;50.738;7.122;2022-10-16T19:31:32;17.00;99.90
4763;DHT22;2395;50.738;7.122;2022-10-16T19:34:58;16.90;99.90
4763;DHT22;2395;50.738;7.122;2022-10-16T19:38:32;16.90;99.90
4763;DHT22;2395;50.738;7.122;2022-10-16T19:41:57;16.70;99.90
4763;DHT22;2395;50.738;7.122;2022-10-16T19:45:24;16.70;99.90
4763;DHT22;2395;50.738;7.122;2022-10-16T19:48:53;16.70;99.90
4763;DHT22;2395;50.738;7.122;2022-10-16T19:52:19;16.70;99.90
4763;DHT22;2395;50.738;7.122;2022-10-16T19:55:45;16.60;99.90
4763;DHT22;2395;50.738;7.122;2022-10-16T19:59:11;16.50;99.90
4763;DHT22;2395;50.738;7.122;2022-10-16T20:02:39;16.50;99.90
4763;DHT22;2395;50.738;7.122;2022-10-16T20:06:07;16.40;99.90
4763;DHT22;2395;50.738;7.122;2022-10-16T20:09:33;16.40;99.90
4763;DHT22;2395;50.738;7.122;2022-10-16T20:12:58;16.30;99.90
4763;DHT22;2395;50.738;7.122;2022-10-16T20:16:25;16.30;99.90
4763;DHT22;2395;50.738;7.122;2022-10-16T20:19:52;16.30;99.90
4763;DHT22;2395;50.738;7.122;2022-10-16T20:23:21;16.20;99.90
4763;DHT22;2395;50.738;7.122;2022-10-16T20:26:46;16.20;99.90
4763;DHT22;2395;50.738;7.122;2022-10-16T20:30:12;16.20;99.90
4763;DHT22;2395;50.738;7.122;2022-10-16T20:33:40;16.10;99.90
4763;DHT22;2395;50.738;7.122;2022-10-16T20:37:11;16.10;99.90
4763;DHT22;2395;50.738;7.122;2022-10-16T20:40:39;16.10;99.90
4763;DHT22;2395;50.738;7.122;2022-10-16T20:44:05;16.00;99.90
4763;DHT22;2395;50.738;7.122;2022-10-16T20:47:33;16.10;99.90
4763;DHT22;2395;50.738;7.122;2022-10-16T20:51:10;16.10;99.90
4763;DHT22;2395;50.738;7.122;2022-10-16T20:54:37;16.00;99.90
4763;DHT22;2395;50.738;7.122;2022-10-16T20:58:03;16.00;99.90
4763;DHT22;2395;50.738;7.122;2022-10-16T21:01:30;16.00;99.90
4763;DHT22;2395;50.738;7.122;2022-10-16T21:04:55;16.00;99.90
4763;DHT22;2395;50.738;7.122;2022-10-16T21:08:22;16.00;99.90
4763;DHT22;2395;50.738;7.122;2022-10-16T21:11:51;16.00;99.90
4763;DHT22;2395;50.738;7.122;2022-10-16T21:15:18;16.00;99.90
4763;DHT22;2395;50.738;7.122;2022-10-16T21:18:43;16.00;99.90
4763;DHT22;2395;50.738;7.122;2022-10-16T21:22:09;15.90;99.90
4763;DHT22;2395;50.738;7.122;2022-10-16T21:25:35;15.90;99.90
4763;DHT22;2395;50.738;7.122;2022-10-16T21:29:03;15.90;99.90
4763;DHT22;2395;50.738;7.122;2022-10-16T21:32:30;15.90;99.90
4763;DHT22;2395;50.738;7.122;2022-10-16T21:35:55;15.90;99.90
4763;DHT22;2395;50.738;7.122;2022-10-16T21:39:21;15.80;99.90
4763;DHT22;2395;50.738;7.122;2022-10-16T21:42:46;15.80;99.90
4763;DHT22;2395;50.738;7.122;2022-10-16T21:46:14;15.80;99.90
4763;DHT22;2395;50.738;7.122;2022-10-16T21:49:41;15.80;99.90
4763;DHT22;2395;50.738;7.122;2022-10-16T21:53:12;15.70;99.90
4763;DHT22;2395;50.738;7.122;2022-10-16T21:56:39;15.70;99.90
4763;DHT22;2395;50.738;7.122;2022-10-16T22:00:06;15.70;99.90
4763;DHT22;2395;50.738;7.122;2022-10-16T22:03:33;15.80;99.90
4763;DHT22;2395;50.738;7.122;2022-10-16T22:06:59;15.70;99.90
4763;DHT22;2395;50.738;7.122;2022-10-16T22:10:25;15.80;99.90
4763;DHT22;2395;50.738;7.122;2022-10-16T22:13:51;15.80;99.90
4763;DHT22;2395;50.738;7.122;2022-10-16T22:17:17;15.80;99.90
4763;DHT22;2395;50.738;7.122;2022-10-16T22:20:45;15.80;99.90
4763;DHT22;2395;50.738;7.122;2022-10-16T22:24:12;15.70;99.90
4763;DHT22;2395;50.738;7.122;2022-10-16T22:27:38;15.80;99.90
4763;DHT22;2395;50.738;7.122;2022-10-16T22:31:06;15.80;99.90
4763;DHT22;2395;50.738;7.122;2022-10-16T22:34:32;15.80;99.90
4763;DHT22;2395;50.738;7.122;2022-10-16T22:38:03;15.90;99.90
4763;DHT22;2395;50.738;7.122;2022-10-16T22:41:29;15.90;99.90
4763;DHT22;2395;50.738;7.122;2022-10-16T22:44:54;15.90;99.90
4763;DHT22;2395;50.738;7.122;2022-10-16T22:48:19;16.00;99.90
4763;DHT22;2395;50.738;7.122;2022-10-16T22:51:45;16.10;99.90
4763;DHT22;2395;50.738;7.122;2022-10-16T22:55:12;16.00;99.90